Airfield :
LOGIN :

Register | Disclaimer

   EN    FR    IT 

 










Legend :    VFR   Marginal VFR   IFR   Intensive IFR   Very Intensive IFR
Visi :
Ceiling :
>= 8 km
>= 3000ft
5 to 8 km
1000 to 3000 ft
1500m to 5 km
500 to 1000 ft
800 to 1500m
200 to 500 ft
< 800m
< 200 ft
Symbols :   Thunderstorms  Fog  Heavy snow  Heavy precipitations  Wind > 20 kt
SIGMETs :     Misc.  Thunderstorms  Icing  Turbulence  Mountain Waves  Volcanic Ashes







- Airport Elevation : 461 ft
- IATA code : WIE


ETOU - Wiesbaden Army

CURRENT METAR :
  • 240656Z AUTO 07007KT 9999 CLR 16/08 A2959 RMK AO2 SLP019 T01550075 $

EXPIRED METARs :
  • 240556Z AUTO 08004KT 9999 CLR 14/07 A2958 RMK AO2 SLP016 T01410072 10167 20132 52019 $
  • 240459Z 07005KT 9999 FEW150 13/07 A2956 RMK A02A SLP010 T01340067 $

TAF TAF ETOU
Valid from the 24 at 03:00 until the 25 at 09:00 UTC


240308Z 2403/2509 VRB06KT 9999 FEW050 QNH2950INS
BECMG 2414/2415 09012KT 8000 -SHRA SCT020 BKN040 QNH2956INS
TEMPO 2415/2419 20015G25KT 6000 -TSRA BKN040CB
BECMG 2418/2419 21012KT 8000 -SHRA SCT050 BKN070 QNH2952INS TX23/2416Z TN12/2405Z
No reported NOTAMs for that airfield.



MET'MAP, your aeronautical weather chart ! - Copyright ORBIFLY December 2007 - Disclaimer

ORBIFLY MET'MAP TEAM :

Programming & Development : Alexandra Zaïnal
Concept & Development : Baudouin d'Aumeries
Co-Development & Prog : Marc-Olivier Méhu
Technical & hardware support : Manuel Goepfert

Contact : metmap@orbifly.com




SOURCES & CREDITS :

   NOAA